Time;durP1;ratioP1;P1;durP2;ratioP2;P2;SDS_P1;SDS_P2;PMS_P1;PMS_P2;Temp;Humidity;BMP_temperature;BMP_pressure;BME280_temperature;BME280_humidity;BME280_pressure;Samples;Min_cycle;Max_cycle;Signal;HPM_P1;HPM_P2
2021/10/28 00:12:14;;;;;;;31.40;17.40;;;;;;;8.46;57.21;99930.30;113714;1192;97575;-77
2021/10/28 00:14:44;;;;;;;31.70;16.90;;;;;;;8.44;57.40;99930.73;113359;1192;110924;-76
2021/10/28 00:17:15;;;;;;;34.60;18.20;;;;;;;8.44;57.34;99934.83;114158;1192;97535;-76
2021/10/28 00:19:45;;;;;;;34.80;18.50;;;;;;;8.42;57.29;99935.26;113525;1192;107649;-76
2021/10/28 00:22:13;;;;;;;33.00;17.30;;;;;;;8.39;57.37;99934.15;113504;1192;97506;-77
2021/10/28 00:24:41;;;;;;;32.70;17.20;;;;;;;8.38;57.42;99935.29;113495;1192;97625;-77
2021/10/28 00:27:10;;;;;;;33.60;18.00;;;;;;;8.36;57.29;99940.52;113352;1193;111197;-77
2021/10/28 00:29:38;;;;;;;34.70;18.30;;;;;;;8.35;57.42;99942.13;113401;1193;97572;-76
2021/10/28 00:32:07;;;;;;;34.20;17.80;;;;;;;8.36;57.48;99944.04;113629;1193;106550;-77
2021/10/28 00:34:35;;;;;;;34.70;17.60;;;;;;;8.35;57.50;99939.30;113594;1192;96576;-77
2021/10/28 00:37:04;;;;;;;32.50;17.50;;;;;;;8.35;57.47;99935.77;113623;1192;95015;-78
2021/10/28 00:39:32;;;;;;;32.80;17.30;;;;;;;8.34;57.46;99935.64;113602;1192;111179;-76
2021/10/28 00:42:00;;;;;;;31.60;17.90;;;;;;;8.34;57.74;99938.13;113374;1193;97658;-75
2021/10/28 00:44:28;;;;;;;34.70;18.40;;;;;;;8.34;57.70;99944.13;113638;1192;107472;-76
2021/10/28 00:46:56;;;;;;;33.50;17.40;;;;;;;8.33;57.70;99942.77;113677;1192;97663;-78
2021/10/28 00:49:24;;;;;;;34.50;17.00;;;;;;;8.32;57.62;99941.95;113714;1192;97544;-75
2021/10/28 00:51:54;;;;;;;33.60;16.90;;;;;;;8.31;57.73;99942.33;113330;1193;111202;-75
2021/10/28 00:54:23;;;;;;;32.30;16.70;;;;;;;8.29;57.63;99944.19;113650;1193;95033;-74
2021/10/28 00:56:51;;;;;;;34.30;18.60;;;;;;;8.29;57.67;99941.55;113683;1193;107494;-73
2021/10/28 00:59:19;;;;;;;34.30;17.50;;;;;;;8.28;57.79;99942.86;113747;1192;97725;-73
2021/10/28 01:01:47;;;;;;;31.40;17.20;;;;;;;8.26;57.80;99938.68;113800;1192;97619;-74
2021/10/28 01:04:16;;;;;;;34.10;18.50;;;;;;;8.23;57.88;99930.00;113641;1193;110950;-74
2021/10/28 01:06:45;;;;;;;35.60;18.30;;;;;;;8.21;57.71;99924.98;113474;1192;97652;-74
2021/10/28 01:09:14;;;;;;;30.50;17.00;;;;;;;8.18;57.75;99921.77;113848;1192;108815;-75
2021/10/28 01:11:43;;;;;;;35.60;17.60;;;;;;;8.15;57.68;99920.83;113778;1193;97641;-75
2021/10/28 01:14:11;;;;;;;32.80;17.40;;;;;;;8.13;57.91;99917.23;113701;1192;98275;-77
2021/10/28 01:16:38;;;;;;;33.30;16.20;;;;;;;8.12;57.82;99920.30;113685;1193;111166;-76
2021/10/28 01:19:06;;;;;;;39.30;18.00;;;;;;;8.10;57.74;99921.63;113689;1193;96157;-76
2021/10/28 01:21:34;;;;;;;34.50;17.40;;;;;;;8.09;57.81;99923.30;113753;1193;107208;-75
2021/10/28 01:24:03;;;;;;;37.00;17.20;;;;;;;8.07;57.81;99925.49;113795;1193;97660;-75
2021/10/28 01:26:30;;;;;;;35.20;18.10;;;;;;;8.04;57.89;99921.76;113597;1192;97647;-76
2021/10/28 01:29:02;;;;;;;34.90;18.80;;;;;;;8.02;57.91;99921.29;113661;1192;111171;-76
2021/10/28 01:31:33;;;;;;;31.30;17.00;;;;;;;7.99;57.95;99921.80;113711;1192;98209;-75
2021/10/28 01:34:05;;;;;;;37.90;18.90;;;;;;;7.96;57.86;99922.30;113780;1192;107535;-78
2021/10/28 01:36:34;;;;;;;33.30;17.40;;;;;;;7.96;58.02;99922.48;113760;1192;97506;-76
2021/10/28 01:39:21;;;;;;;33.70;17.50;;;;;;;7.96;57.99;99924.08;113821;1193;97672;-76
2021/10/28 01:41:53;;;;;;;33.00;18.40;;;;;;;7.94;57.98;99923.30;113780;1192;111304;-78
2021/10/28 01:44:23;;;;;;;34.60;19.10;;;;;;;7.91;57.98;99920.77;113796;1192;97570;-77
2021/10/28 01:46:52;;;;;;;35.00;18.20;;;;;;;7.89;57.90;99916.11;113774;1193;108726;-76
2021/10/28 01:49:28;;;;;;;36.40;17.80;;;;;;;7.85;58.00;99909.74;113739;1192;95144;-75
2021/10/28 01:51:58;;;;;;;34.20;18.20;;;;;;;7.83;58.23;99913.36;113721;1192;98002;-77
2021/10/28 01:54:29;;;;;;;35.40;18.20;;;;;;;7.82;58.03;99908.82;113679;1192;111182;-77
2021/10/28 01:56:57;;;;;;;33.20;17.90;;;;;;;7.81;58.04;99903.03;113811;1192;96072;-76
2021/10/28 01:59:25;;;;;;;33.90;17.50;;;;;;;7.80;58.24;99902.25;113604;1193;107447;-77
2021/10/28 02:01:53;;;;;;;33.60;17.80;;;;;;;7.77;58.07;99903.41;113641;1193;97542;-76
2021/10/28 02:04:22;;;;;;;33.50;17.60;;;;;;;7.76;58.22;99906.12;113674;1192;95013;-76
2021/10/28 02:06:49;;;;;;;35.20;17.60;;;;;;;7.74;58.45;99905.67;113694;1192;111132;-76
2021/10/28 02:09:17;;;;;;;34.60;17.70;;;;;;;7.73;58.37;99907.50;113753;1194;97644;-76
2021/10/28 02:11:46;;;;;;;36.40;19.00;;;;;;;7.71;58.32;99906.71;113703;1193;107161;-76
2021/10/28 02:14:15;;;;;;;32.10;17.20;;;;;;;7.69;58.21;99911.71;113790;1192;97556;-77
2021/10/28 02:16:44;;;;;;;36.00;17.50;;;;;;;7.68;58.50;99911.98;113763;1193;95138;-77
2021/10/28 02:19:12;;;;;;;35.80;17.40;;;;;;;7.68;58.52;99916.38;113630;1193;110224;-79
2021/10/28 02:21:40;;;;;;;32.80;18.00;;;;;;;7.68;58.66;99914.59;113719;1193;97465;-78
2021/10/28 02:24:07;;;;;;;32.30;17.30;;;;;;;7.69;58.72;99917.75;113597;1192;107505;-78
2021/10/28 02:26:35;;;;;;;35.30;18.10;;;;;;;7.67;58.67;99918.38;113586;1193;96126;-77
2021/10/28 02:29:04;;;;;;;34.00;17.50;;;;;;;7.63;58.59;99920.64;113747;1192;97562;-78
2021/10/28 02:31:31;;;;;;;33.40;17.50;;;;;;;7.59;58.66;99921.02;113767;1193;111114;-79
2021/10/28 02:34:00;;;;;;;35.00;19.60;;;;;;;7.52;58.67;99925.23;113785;1192;97645;-79
2021/10/28 02:36:28;;;;;;;31.70;16.80;;;;;;;7.46;58.73;99922.52;113739;1193;105787;-79
2021/10/28 02:38:55;;;;;;;34.70;19.10;;;;;;;7.39;58.62;99925.64;113724;1193;97647;-77
2021/10/28 02:41:23;;;;;;;32.90;18.30;;;;;;;7.32;58.65;99924.89;113721;1193;97983;-76
2021/10/28 02:43:52;;;;;;;38.80;22.40;;;;;;;7.23;58.57;99924.97;113711;1193;111141;-79
2021/10/28 02:46:20;;;;;;;38.10;20.80;;;;;;;7.14;58.67;99923.77;113710;1193;97626;-77
2021/10/28 02:48:48;;;;;;;41.00;22.50;;;;;;;7.09;58.58;99931.58;113787;1193;107532;-76
2021/10/28 02:51:16;;;;;;;41.40;22.10;;;;;;;7.03;58.76;99933.06;113675;1192;97599;-79
2021/10/28 02:53:44;;;;;;;43.50;23.90;;;;;;;6.95;58.47;99932.72;113660;1192;97576;-78
2021/10/28 02:56:12;;;;;;;45.00;23.90;;;;;;;6.86;58.57;99934.18;113604;1193;111275;-77
2021/10/28 02:58:40;;;;;;;43.70;23.00;;;;;;;6.79;58.41;99937.11;113682;1193;95023;-77
2021/10/28 03:01:07;;;;;;;39.70;21.10;;;;;;;6.73;58.61;99939.30;113776;1193;107450;-77
2021/10/28 03:03:38;;;;;;;39.80;21.60;;;;;;;6.69;58.66;99940.02;113631;1196;97586;-78
2021/10/28 03:06:06;;;;;;;40.70;23.00;;;;;;;6.61;58.63;99946.35;113703;1192;98268;-77
2021/10/28 03:08:34;;;;;;;44.80;23.30;;;;;;;6.54;58.69;99951.90;113670;1192;111221;-79
2021/10/28 03:11:06;;;;;;;38.00;23.10;;;;;;;6.49;58.73;99954.41;113707;1192;97622;-79
2021/10/28 03:13:37;;;;;;;39.00;21.30;;;;;;;6.43;58.83;99949.55;113653;1192;107500;-80
2021/10/28 03:16:17;;;;;;;41.70;22.40;;;;;;;6.38;58.89;99949.75;113645;1192;97576;-79
2021/10/28 03:27:06;;;;;;;45.40;26.20;;;;;;;5.94;58.60;99963.77;113703;1192;107477;-80
2021/10/28 03:29:34;;;;;;;42.80;25.00;;;;;;;5.90;58.70;99965.71;113688;1192;97522;-79
2021/10/28 03:32:02;;;;;;;40.40;22.50;;;;;;;5.87;58.71;99963.88;113742;1193;97616;-80
2021/10/28 03:34:30;;;;;;;38.40;21.60;;;;;;;5.84;58.73;99962.27;113556;1192;111181;-78
2021/10/28 03:37:12;;;;;;;38.80;21.90;;;;;;;5.83;58.89;99966.34;113531;1192;97572;-77
2021/10/28 04:28:54;;;;;;;37.10;19.40;;;;;;;6.00;59.78;99979.96;113401;1193;111165;-73
2021/10/28 04:31:24;;;;;;;38.60;20.80;;;;;;;6.02;59.83;99976.02;113505;1193;96908;-75
2021/10/28 04:33:53;;;;;;;40.50;20.00;;;;;;;6.05;59.85;99974.86;113535;1192;108047;-77
2021/10/28 04:36:29;;;;;;;34.30;18.60;;;;;;;6.06;59.91;99980.41;113607;1192;98747;-76
2021/10/28 04:38:58;;;;;;;36.20;18.70;;;;;;;6.09;59.81;99983.48;113539;1192;97675;-76
2021/10/28 04:41:27;;;;;;;36.70;19.90;;;;;;;6.11;59.83;99983.38;113643;1192;111147;-76
2021/10/28 04:44:01;;;;;;;34.80;18.60;;;;;;;6.14;59.79;99982.25;113614;1192;97639;-75
2021/10/28 04:46:29;;;;;;;36.10;19.40;;;;;;;6.14;59.95;99981.52;113470;1192;106663;-76
2021/10/28 04:48:57;;;;;;;34.90;18.00;;;;;;;6.16;60.15;99983.89;113562;1192;96298;-75
2021/10/28 04:51:25;;;;;;;34.40;18.00;;;;;;;6.16;59.99;99985.14;113484;1193;97584;-77
2021/10/28 04:53:52;;;;;;;32.90;18.10;;;;;;;6.16;60.04;99987.62;113287;1193;111175;-79
2021/10/28 04:56:21;;;;;;;34.20;18.80;;;;;;;6.18;60.08;99990.88;113404;1193;97572;-79
2021/10/28 04:58:49;;;;;;;37.30;19.60;;;;;;;6.19;60.06;99984.85;113619;1193;107516;-77
2021/10/28 05:01:19;;;;;;;34.60;19.50;;;;;;;6.20;60.21;99982.86;113541;1193;97525;-81
2021/10/28 05:03:48;;;;;;;30.30;17.40;;;;;;;6.23;60.10;99987.17;113724;1192;97580;-78
2021/10/28 05:06:16;;;;;;;31.40;18.00;;;;;;;6.25;60.03;99988.83;113759;1193;111104;-78
2021/10/28 05:08:44;;;;;;;34.10;18.50;;;;;;;6.28;60.06;99990.48;113782;1193;97510;-80
2021/10/28 05:11:20;;;;;;;38.10;18.40;;;;;;;6.32;60.14;99994.21;113715;1193;107516;-80
2021/10/28 05:13:49;;;;;;;33.40;18.20;;;;;;;6.34;60.13;99995.51;113630;1192;98321;-79
2021/10/28 05:16:19;;;;;;;39.50;19.90;;;;;;;6.37;60.27;99998.06;113681;1192;96664;-76
2021/10/28 05:18:47;;;;;;;35.00;18.80;;;;;;;6.39;60.38;99996.38;113460;1192;111155;-77
2021/10/28 05:21:16;;;;;;;34.70;18.60;;;;;;;6.40;60.44;99997.04;113582;1193;97615;-78
2021/10/28 05:23:46;;;;;;;34.20;18.60;;;;;;;6.42;60.36;99998.55;113513;1193;107496;-77
2021/10/28 05:26:15;;;;;;;36.70;19.90;;;;;;;6.45;60.34;99999.67;113374;1193;97644;-78
2021/10/28 05:28:43;;;;;;;36.20;21.00;;;;;;;6.47;60.41;100000.81;113716;1193;96058;-80
2021/10/28 05:31:11;;;;;;;48.30;26.00;;;;;;;6.50;60.49;100001.80;113697;1193;111187;-77
2021/10/28 05:33:39;;;;;;;42.40;22.60;;;;;;;6.51;60.39;99999.27;113709;1192;98747;-77
2021/10/28 05:36:08;;;;;;;36.30;20.20;;;;;;;6.52;60.49;100001.16;113497;1194;107459;-78
2021/10/28 05:38:36;;;;;;;36.30;20.20;;;;;;;6.52;60.40;100001.88;113538;1193;97641;-78
2021/10/28 05:41:04;;;;;;;37.10;20.10;;;;;;;6.50;60.42;100000.90;113686;1193;97544;-78
2021/10/28 05:43:33;;;;;;;36.80;21.20;;;;;;;6.49;60.54;100003.22;113766;1193;111161;-78
2021/10/28 05:46:01;;;;;;;36.30;18.80;;;;;;;6.48;60.56;99999.20;113810;1193;95157;-80
2021/10/28 05:48:29;;;;;;;36.60;19.50;;;;;;;6.47;60.47;100000.30;113591;1193;107477;-80
2021/10/28 05:50:59;;;;;;;35.90;19.90;;;;;;;6.47;60.38;99998.40;113656;1193;97596;-79
2021/10/28 05:53:28;;;;;;;36.30;20.70;;;;;;;6.45;60.56;99997.05;113683;1193;95232;-80
2021/10/28 05:55:56;;;;;;;36.10;19.70;;;;;;;6.45;60.50;100000.54;113662;1192;111143;-80
2021/10/28 05:58:24;;;;;;;49.10;22.50;;;;;;;6.45;60.66;100002.52;113446;1193;95057;-80
2021/10/28 06:00:52;;;;;;;37.40;21.40;;;;;;;6.45;60.72;100004.61;113721;1192;107479;-83
2021/10/28 06:03:20;;;;;;;36.40;21.50;;;;;;;6.46;60.80;100011.78;113697;1192;95766;-80
2021/10/28 06:05:48;;;;;;;37.90;20.40;;;;;;;6.48;60.60;100018.94;113795;1193;97249;-81
2021/10/28 06:08:16;;;;;;;35.30;20.60;;;;;;;6.49;60.79;100016.94;113777;1193;111134;-80
2021/10/28 06:10:44;;;;;;;38.50;21.10;;;;;;;6.51;60.97;100017.05;113850;1193;97676;-76
2021/10/28 06:13:12;;;;;;;37.00;20.60;;;;;;;6.53;60.79;100023.65;113808;1193;107437;-79
2021/10/28 06:15:40;;;;;;;37.30;20.90;;;;;;;6.56;60.95;100029.91;113772;1192;98253;-81
2021/10/28 06:18:52;;;;;;;39.30;20.90;;;;;;;6.60;61.05;100032.73;113502;1193;97589;-80
2021/10/28 06:21:00;;;;;;;40.20;24.40;;;;;;;6.64;61.21;100031.31;113691;1193;111132;-81
2021/10/28 06:23:27;;;;;;;40.00;22.50;;;;;;;6.69;61.13;100038.88;113846;1193;97504;-75
2021/10/28 06:25:55;;;;;;;39.90;22.40;;;;;;;6.75;61.04;100040.39;113812;1192;105681;-77
2021/10/28 06:28:23;;;;;;;39.10;21.60;;;;;;;6.80;61.02;100038.98;113565;1193;97670;-78
2021/10/28 06:30:51;;;;;;;44.20;20.80;;;;;;;6.85;61.04;100041.42;113813;1193;97638;-81
2021/10/28 06:33:24;;;;;;;52.50;21.60;;;;;;;6.88;61.00;100041.27;113785;1193;112210;-80
2021/10/28 06:35:52;;;;;;;41.00;20.10;;;;;;;6.94;61.04;100038.93;113611;1193;97574;-79
2021/10/28 06:38:21;;;;;;;39.50;20.80;;;;;;;6.98;61.06;100045.24;113757;1192;107502;-78
2021/10/28 06:40:49;;;;;;;34.40;19.30;;;;;;;7.05;61.15;100042.52;113579;1193;98384;-82
2021/10/28 06:43:17;;;;;;;34.30;18.50;;;;;;;7.11;61.17;100048.45;113818;1193;95568;-81
2021/10/28 06:45:45;;;;;;;37.80;19.90;;;;;;;7.16;61.30;100047.86;113805;1192;110923;-82
2021/10/28 06:48:13;;;;;;;33.90;19.00;;;;;;;7.24;61.30;100055.30;113741;1192;95301;-79
2021/10/28 06:50:54;;;;;;;38.10;18.90;;;;;;;7.30;61.23;100049.74;113735;1192;107512;-81
2021/10/28 06:53:29;;;;;;;36.80;19.30;;;;;;;7.38;61.48;100047.10;113747;1193;97644;-77
2021/10/28 06:56:24;;;;;;;36.60;19.00;;;;;;;7.45;61.41;100045.71;113579;1193;95096;-81
2021/10/28 07:04:25;;;;;;;33.10;18.30;;;;;;;7.72;61.40;100042.27;113789;1193;107529;-79
2021/10/28 07:06:53;;;;;;;36.20;19.70;;;;;;;7.79;61.55;100039.79;113786;1193;97623;-79
2021/10/28 07:09:33;;;;;;;34.00;18.10;;;;;;;7.87;61.51;100042.96;113787;1192;97625;-81
2021/10/28 07:12:28;;;;;;;36.50;19.30;;;;;;;7.96;61.66;100048.55;113621;1193;111203;-82
2021/10/28 07:14:53;;;;;;;32.30;18.20;;;;;;;8.04;61.75;100056.31;113521;1193;97643;-82
2021/10/28 07:21:23;;;;;;;33.70;17.80;;;;;;;8.20;61.71;100060.71;113803;1192;97547;-81
2021/10/28 07:31:59;;;;;;;32.90;17.60;;;;;;;8.54;61.70;100055.10;113478;1193;107518;-80
2021/10/28 07:34:20;;;;;;;35.10;17.60;;;;;;;8.61;61.66;100050.48;113687;1192;97544;-77
2021/10/28 07:54:57;;;;;;;34.60;18.10;;;;;;;8.78;61.80;100059.05;113716;1192;110898;-74
2021/10/28 08:15:40;;;;;;;38.00;19.00;;;;;;;10.00;61.57;100031.13;113713;1193;96632;-77
2021/10/28 08:29:04;;;;;;;33.60;17.80;;;;;;;10.64;61.42;100023.74;113744;1192;97598;-78
2021/10/28 08:31:32;;;;;;;34.90;18.80;;;;;;;10.80;61.42;100021.37;113816;1192;97598;-79
2021/10/28 08:34:09;;;;;;;32.10;19.20;;;;;;;11.01;61.49;100019.82;113810;1193;111226;-79
2021/10/28 08:36:44;;;;;;;31.00;17.90;;;;;;;11.26;61.37;100018.53;113456;1193;97615;-78
2021/10/28 08:39:12;;;;;;;33.00;18.30;;;;;;;11.55;61.25;100018.00;113752;1193;107564;-78
2021/10/28 08:41:41;;;;;;;33.80;18.10;;;;;;;11.85;61.33;100023.60;113467;1193;98253;-80
2021/10/28 08:44:10;;;;;;;32.40;17.20;;;;;;;12.16;61.26;100023.14;113345;1193;97591;-76
2021/10/28 08:46:42;;;;;;;31.60;16.90;;;;;;;12.49;61.09;100021.56;113771;1194;110229;-76
2021/10/28 09:28:06;;;;;;;28.10;15.70;;;;;;;17.51;59.19;100009.05;113500;1193;112327;-78
2021/10/28 09:30:41;;;;;;;28.90;16.20;;;;;;;17.45;59.19;100009.69;113531;1193;95049;-78
2021/10/28 09:51:09;;;;;;;29.70;16.10;;;;;;;17.60;57.61;99988.36;113388;1193;97571;-77
2021/10/28 09:54:09;;;;;;;28.50;16.10;;;;;;;17.68;57.32;99982.42;113502;1193;97615;-79
2021/10/28 09:59:42;;;;;;;28.50;16.10;;;;;;;17.83;56.89;99980.81;113444;1193;98754;-82
2021/10/28 10:05:07;;;;;;;29.60;15.40;;;;;;;17.86;56.16;99974.05;113580;1193;96058;-76
2021/10/28 10:07:35;;;;;;;27.10;15.40;;;;;;;17.90;56.08;99975.50;113548;1193;96244;-78
2021/10/28 10:10:03;;;;;;;26.30;15.00;;;;;;;17.94;55.87;99969.53;113744;1192;111171;-72
2021/10/28 10:12:32;;;;;;;30.50;16.10;;;;;;;17.93;55.89;99969.61;113661;1193;97647;-73
2021/10/28 10:15:02;;;;;;;28.50;15.40;;;;;;;18.02;55.55;99967.85;113416;1193;107513;-77
2021/10/28 10:17:30;;;;;;;28.00;15.50;;;;;;;18.11;55.41;99970.40;113581;1192;97580;-80
2021/10/28 10:20:00;;;;;;;27.80;14.30;;;;;;;18.20;55.33;99964.46;113547;1192;97500;-75
2021/10/28 10:25:31;;;;;;;29.90;16.20;;;;;;;18.37;55.14;99958.73;113682;1193;97582;-81
2021/10/28 11:32:37;;;;;;;22.80;11.00;;;;;;;19.36;52.01;99911.34;113748;1187;97631;-75
2021/10/28 12:27:45;;;;;;;24.70;12.90;;;;;;;19.57;49.89;99864.89;113621;1193;95046;-75
2021/10/28 12:43:28;;;;;;;25.10;13.70;;;;;;;19.52;49.29;99867.71;113797;1193;95013;-72
2021/10/28 12:43:49;;;;;;;26.90;14.30;;;;;;;19.40;49.11;99849.45;113293;1186;97756;-75
2021/10/28 12:51:59;;;;;;;27.40;15.10;;;;;;;19.47;48.77;99842.83;113529;1192;107559;-78
2021/10/28 14:33:25;;;;;;;28.50;13.60;;;;;;;17.24;43.57;99816.82;113665;1193;97602;-76
2021/10/28 15:28:11;;;;;;;44.30;20.00;;;;;;;15.54;43.82;99811.27;113687;1192;97556;-75
2021/10/28 15:36:10;;;;;;;35.00;16.90;;;;;;;15.06;43.93;99815.14;113673;1193;107380;-73
2021/10/28 15:57:25;;;;;;;49.20;24.10;;;;;;;13.77;44.14;99812.20;113680;1192;110979;-75
2021/10/28 16:21:56;;;;;;;50.30;26.10;;;;;;;12.58;44.45;99829.17;113529;1192;97597;-74
2021/10/28 16:24:28;;;;;;;;;;;;;;;12.47;44.47;99831.12;113535;1192;111267;-75
2021/10/28 16:26:57;;;;;;;54.00;24.30;;;;;;;12.35;44.62;99832.84;113499;1192;97528;-74
2021/10/28 16:29:27;;;;;;;53.40;25.80;;;;;;;12.27;44.68;99829.69;113447;1192;107595;-76
2021/10/28 16:31:55;;;;;;;50.00;24.10;;;;;;;12.19;44.76;99834.50;113470;1193;98348;-78
2021/10/28 16:34:27;;;;;;;61.00;32.20;;;;;;;12.10;44.69;99833.83;113568;1192;98134;-77
2021/10/28 16:36:57;;;;;;;59.40;27.90;;;;;;;12.02;45.04;99835.06;113324;1193;111086;-74
2021/10/28 16:39:25;;;;;;;57.40;28.00;;;;;;;11.93;44.84;99833.98;113403;1193;97593;-75
2021/10/28 16:41:56;;;;;;;71.40;42.40;;;;;;;11.86;44.95;99833.60;113584;1193;106543;-73
2021/10/28 16:44:26;;;;;;;81.20;45.60;;;;;;;11.78;45.02;99832.66;113517;1192;97620;-73
2021/10/28 16:46:55;;;;;;;62.40;32.90;;;;;;;11.72;45.00;99834.16;113511;1192;97566;-74
2021/10/28 16:49:23;;;;;;;62.00;32.40;;;;;;;11.64;45.15;99835.33;113431;1193;111186;-73
2021/10/28 16:51:51;;;;;;;68.30;33.50;;;;;;;11.58;45.26;99832.89;113545;1192;96647;-73
2021/10/28 16:54:20;;;;;;;77.50;40.10;;;;;;;11.51;45.37;99837.27;113550;1192;108033;-73
2021/10/28 16:56:48;;;;;;;77.00;39.70;;;;;;;11.43;45.35;99836.73;113519;1192;97562;-72
2021/10/28 16:59:16;;;;;;;66.70;34.90;;;;;;;11.36;45.43;99837.48;113559;1192;97622;-72
2021/10/28 17:01:44;;;;;;;73.40;41.00;;;;;;;11.30;45.53;99838.41;113512;1192;111172;-72
2021/10/28 17:04:12;;;;;;;77.30;41.40;;;;;;;11.23;45.57;99834.04;113544;1192;97700;-72
2021/10/28 17:06:40;;;;;;;102.20;58.40;;;;;;;11.14;45.56;99828.05;113306;1193;107650;-72
2021/10/28 17:09:09;;;;;;;95.20;53.10;;;;;;;11.08;45.62;99831.98;113453;1192;97532;-73
2021/10/28 17:11:39;;;;;;;103.80;57.40;;;;;;;11.06;45.63;99836.17;113590;1192;97556;-74
2021/10/28 17:14:08;;;;;;;116.30;62.10;;;;;;;11.08;45.75;99835.17;113590;1192;110783;-71
2021/10/28 17:16:40;;;;;;;114.60;63.80;;;;;;;11.11;45.98;99829.32;113580;1192;95029;-73
2021/10/28 17:19:08;;;;;;;115.70;63.50;;;;;;;11.13;46.41;99830.91;113504;1192;107549;-72
2021/10/28 17:21:36;;;;;;;116.20;64.90;;;;;;;11.13;46.63;99827.22;113502;1192;96452;-72
2021/10/28 17:24:07;;;;;;;117.70;65.10;;;;;;;11.10;46.64;99826.19;113518;1192;98776;-72
2021/10/28 17:26:35;;;;;;;121.60;66.30;;;;;;;11.08;46.60;99827.90;113630;1192;111271;-73
2021/10/28 17:29:04;;;;;;;127.30;69.10;;;;;;;11.06;46.59;99830.50;113575;1193;96916;-72
2021/10/28 17:31:33;;;;;;;125.50;71.00;;;;;;;11.06;46.83;99831.95;113550;1192;106595;-72
2021/10/28 17:34:03;;;;;;;130.30;70.70;;;;;;;11.04;47.33;99830.10;113575;1192;95714;-72
2021/10/28 17:36:33;;;;;;;137.40;73.50;;;;;;;10.99;47.33;99828.42;113499;1192;95017;-72
2021/10/28 17:39:05;;;;;;;139.30;77.90;;;;;;;10.97;47.48;99824.65;113474;1192;111208;-73
2021/10/28 17:41:34;;;;;;;140.10;78.30;;;;;;;10.93;48.07;99829.32;113523;1192;97726;-72
2021/10/28 17:44:05;;;;;;;144.30;80.80;;;;;;;10.84;48.89;99829.90;113467;1193;107512;-72
2021/10/28 17:46:33;;;;;;;121.80;66.10;;;;;;;10.70;48.46;99826.45;113567;1192;95718;-71
2021/10/28 17:49:00;;;;;;;101.30;57.10;;;;;;;10.66;48.78;99825.30;113541;1192;97527;-72
2021/10/28 17:51:30;;;;;;;93.10;53.10;;;;;;;10.62;48.91;99824.13;113425;1192;111640;-71
2021/10/28 17:53:58;;;;;;;90.30;50.90;;;;;;;10.60;49.20;99817.72;113618;1192;97675;-71
2021/10/28 17:56:25;;;;;;;90.70;51.80;;;;;;;10.58;49.26;99817.29;113583;1192;106606;-71
2021/10/28 17:58:53;;;;;;;98.90;56.50;;;;;;;10.56;49.46;99817.03;113392;1193;97543;-69
2021/10/28 18:01:25;;;;;;;104.40;63.20;;;;;;;10.55;49.47;99815.66;113491;1192;97553;-72
2021/10/28 18:03:57;;;;;;;108.50;60.10;;;;;;;10.54;49.61;99813.42;113652;1192;111182;-73
2021/10/28 18:06:30;;;;;;;115.80;65.80;;;;;;;10.51;49.93;99815.36;113597;1192;96246;-72
2021/10/28 18:09:03;;;;;;;100.60;56.50;;;;;;;10.47;49.78;99813.33;113795;1192;106521;-74
2021/10/28 18:11:32;;;;;;;100.30;57.70;;;;;;;10.45;50.39;99818.95;113683;1192;97564;-73
2021/10/28 18:14:01;;;;;;;114.30;66.40;;;;;;;10.38;50.46;99819.70;113630;1192;97601;-71
2021/10/28 18:16:29;;;;;;;112.70;64.20;;;;;;;10.28;51.13;99821.14;113778;1192;111156;-72
2021/10/28 18:18:58;;;;;;;114.90;67.30;;;;;;;10.14;51.87;99816.48;113694;1193;97634;-73
2021/10/28 18:21:27;;;;;;;107.90;64.50;;;;;;;9.99;52.01;99820.16;113522;1192;107347;-73
2021/10/28 18:23:57;;;;;;;109.60;61.60;;;;;;;9.90;52.14;99820.55;113664;1192;96474;-73
2021/10/28 18:26:25;;;;;;;109.00;64.60;;;;;;;9.79;52.77;99819.23;113863;1193;96482;-71
2021/10/28 18:28:56;;;;;;;106.20;62.50;;;;;;;9.66;52.23;99817.12;113583;1192;110192;-72
2021/10/28 18:31:26;;;;;;;90.10;52.60;;;;;;;9.61;52.32;99817.71;113722;1192;98054;-73
2021/10/28 18:34:00;;;;;;;97.00;58.30;;;;;;;9.60;52.28;99819.20;113636;1192;107578;-71
2021/10/28 18:36:33;;;;;;;95.40;54.90;;;;;;;9.61;52.59;99820.95;113582;1192;97455;-72
2021/10/28 18:39:04;;;;;;;;;;;;;;;9.59;52.80;99822.84;113771;1192;97553;-71
2021/10/28 18:41:32;;;;;;;96.20;52.80;;;;;;;9.52;53.24;99819.84;113611;1192;111223;-71
2021/10/28 18:44:01;;;;;;;90.20;52.70;;;;;;;9.46;53.45;99818.78;113739;1193;95039;-74
2021/10/28 18:46:28;;;;;;;95.80;56.00;;;;;;;9.39;53.76;99823.17;113620;1193;106656;-72
2021/10/28 18:49:01;;;;;;;96.00;55.10;;;;;;;9.30;53.84;99819.98;113440;1193;97602;-71
2021/10/28 18:51:31;;;;;;;94.00;56.70;;;;;;;9.21;54.03;99819.23;113579;1192;97738;-72
2021/10/28 18:53:59;;;;;;;96.80;54.40;;;;;;;9.12;54.16;99824.86;113700;1193;111166;-71
2021/10/28 18:56:28;;;;;;;92.50;52.20;;;;;;;9.02;54.44;99824.84;113835;1193;97620;-71
2021/10/28 18:58:56;;;;;;;89.90;52.70;;;;;;;8.95;54.69;99826.15;113676;1192;107498;-72
2021/10/28 19:01:27;;;;;;;93.10;51.20;;;;;;;8.89;54.76;99828.55;113725;1192;97633;-73
2021/10/28 19:03:56;;;;;;;86.30;50.20;;;;;;;8.82;54.98;99823.45;113670;1193;97567;-72
2021/10/28 19:06:25;;;;;;;79.20;43.90;;;;;;;8.77;54.60;99824.79;113655;1192;111240;-72
2021/10/28 19:08:53;;;;;;;75.50;39.80;;;;;;;8.77;54.54;99825.99;113710;1192;97630;-72
2021/10/28 19:11:24;;;;;;;78.90;42.90;;;;;;;8.81;54.94;99825.44;113547;1192;107531;-73
2021/10/28 19:13:53;;;;;;;80.30;43.20;;;;;;;8.84;54.99;99826.36;113572;1193;97650;-73
2021/10/28 19:16:22;;;;;;;80.90;44.30;;;;;;;8.82;55.19;99822.05;114684;1192;95871;-77
2021/10/28 19:18:50;;;;;;;84.30;45.00;;;;;;;8.78;55.21;99824.91;113650;1192;110769;-72
2021/10/28 19:21:18;;;;;;;92.40;47.60;;;;;;;8.75;55.24;99821.33;113698;1193;97559;-70
2021/10/28 19:23:46;;;;;;;86.50;47.80;;;;;;;8.75;55.12;99823.83;113637;1192;107316;-73
2021/10/28 19:26:14;;;;;;;78.90;45.50;;;;;;;8.74;55.14;99822.81;113740;1192;95110;-73
2021/10/28 19:28:43;;;;;;;79.10;43.60;;;;;;;8.73;55.06;99823.73;113747;1192;96084;-70
2021/10/28 19:31:20;;;;;;;78.10;44.20;;;;;;;8.73;55.00;99823.77;113699;1193;111108;-72
2021/10/28 19:33:57;;;;;;;83.50;46.60;;;;;;;8.72;55.09;99822.55;113706;1192;97476;-71
2021/10/28 19:36:32;;;;;;;78.50;46.80;;;;;;;8.73;54.98;99821.61;113371;1193;105849;-70
2021/10/28 19:47:06;;;;;;;82.00;46.30;;;;;;;8.54;55.71;99820.52;113437;1192;97612;-72
2021/10/28 19:49:37;;;;;;;77.50;45.40;;;;;;;8.49;55.57;99813.34;113760;1192;107634;-71
2021/10/28 19:52:07;;;;;;;81.60;46.40;;;;;;;8.47;55.68;99817.48;113557;1192;97634;-72
2021/10/28 19:54:36;;;;;;;76.70;44.40;;;;;;;8.47;55.51;99811.79;113585;1193;94957;-74
2021/10/28 19:57:12;;;;;;;73.50;42.60;;;;;;;8.47;55.69;99812.32;113372;1193;111934;-72
2021/10/28 19:59:46;;;;;;;76.30;44.60;;;;;;;8.47;55.78;99811.81;113699;1193;95584;-72
2021/10/28 20:02:35;;;;;;;;;;;;;;;8.44;55.75;99811.94;113588;1192;107502;-72
2021/10/28 20:08:01;;;;;;;80.50;43.10;;;;;;;8.18;57.04;99816.10;113528;1192;97603;-73
2021/10/28 20:21:12;;;;;;;90.70;53.00;;;;;;;7.47;58.54;99816.59;113606;1193;97606;-72
2021/10/28 20:23:42;;;;;;;92.30;53.70;;;;;;;7.42;58.25;99815.92;113602;1193;111266;-72
2021/10/28 20:26:10;;;;;;;101.10;56.80;;;;;;;7.40;58.01;99817.08;113620;1192;97993;-73
2021/10/28 20:28:42;;;;;;;103.20;56.80;;;;;;;7.38;58.05;99816.83;113685;1192;107527;-73
2021/10/28 20:31:13;;;;;;;99.10;56.00;;;;;;;7.36;57.87;99812.66;113485;1193;97696;-72
2021/10/28 20:33:45;;;;;;;99.70;55.90;;;;;;;7.39;58.03;99816.09;113797;1192;96382;-73